sensor_id;sensor_type;location;lat;lon;timestamp;P1;durP1;ratioP1;P2;durP2;ratioP2
76725;SDS011;65651;53.154;17.916;2023-07-30T00:00:19;6.40;;;5.30;;
76725;SDS011;65651;53.154;17.916;2023-07-30T00:03:07;7.90;;;5.70;;
76725;SDS011;65651;53.154;17.916;2023-07-30T00:05:34;8.50;;;5.00;;
76725;SDS011;65651;53.154;17.916;2023-07-30T00:08:03;9.50;;;5.80;;
76725;SDS011;65651;53.154;17.916;2023-07-30T00:10:30;6.80;;;5.50;;
76725;SDS011;65651;53.154;17.916;2023-07-30T00:12:57;9.30;;;6.10;;
76725;SDS011;65651;53.154;17.916;2023-07-30T00:15:24;9.10;;;5.80;;
76725;SDS011;65651;53.154;17.916;2023-07-30T00:17:52;9.70;;;6.20;;
76725;SDS011;65651;53.154;17.916;2023-07-30T00:20:20;11.30;;;5.40;;
76725;SDS011;65651;53.154;17.916;2023-07-30T00:22:47;7.50;;;5.30;;
76725;SDS011;65651;53.154;17.916;2023-07-30T00:25:15;10.10;;;6.40;;
76725;SDS011;65651;53.154;17.916;2023-07-30T00:27:44;8.90;;;5.70;;
76725;SDS011;65651;53.154;17.916;2023-07-30T00:30:14;8.40;;;5.60;;
76725;SDS011;65651;53.154;17.916;2023-07-30T00:32:41;9.30;;;5.80;;
76725;SDS011;65651;53.154;17.916;2023-07-30T00:35:10;7.70;;;6.00;;
76725;SDS011;65651;53.154;17.916;2023-07-30T00:37:37;10.50;;;5.70;;
76725;SDS011;65651;53.154;17.916;2023-07-30T00:40:05;9.90;;;5.50;;
76725;SDS011;65651;53.154;17.916;2023-07-30T00:42:35;10.70;;;5.60;;
76725;SDS011;65651;53.154;17.916;2023-07-30T00:45:03;9.50;;;5.90;;
76725;SDS011;65651;53.154;17.916;2023-07-30T00:47:31;7.30;;;5.80;;
76725;SDS011;65651;53.154;17.916;2023-07-30T00:49:58;10.10;;;6.90;;
76725;SDS011;65651;53.154;17.916;2023-07-30T00:52:26;9.00;;;6.30;;
76725;SDS011;65651;53.154;17.916;2023-07-30T00:54:54;7.00;;;5.70;;
76725;SDS011;65651;53.154;17.916;2023-07-30T00:57:24;10.00;;;6.30;;
76725;SDS011;65651;53.154;17.916;2023-07-30T00:59:52;12.30;;;6.60;;
76725;SDS011;65651;53.154;17.916;2023-07-30T01:02:20;8.30;;;6.30;;
76725;SDS011;65651;53.154;17.916;2023-07-30T01:04:48;8.30;;;6.40;;
76725;SDS011;65651;53.154;17.916;2023-07-30T01:07:17;12.40;;;7.10;;
76725;SDS011;65651;53.154;17.916;2023-07-30T01:09:44;9.30;;;6.10;;
76725;SDS011;65651;53.154;17.916;2023-07-30T01:12:11;10.50;;;6.90;;
76725;SDS011;65651;53.154;17.916;2023-07-30T01:14:40;11.90;;;7.30;;
76725;SDS011;65651;53.154;17.916;2023-07-30T01:17:09;10.10;;;7.50;;
76725;SDS011;65651;53.154;17.916;2023-07-30T01:19:38;10.10;;;7.00;;
76725;SDS011;65651;53.154;17.916;2023-07-30T01:22:05;10.70;;;7.60;;
76725;SDS011;65651;53.154;17.916;2023-07-30T01:24:32;10.70;;;7.50;;
76725;SDS011;65651;53.154;17.916;2023-07-30T01:27:01;11.30;;;7.80;;
76725;SDS011;65651;53.154;17.916;2023-07-30T01:29:41;9.60;;;6.70;;
76725;SDS011;65651;53.154;17.916;2023-07-30T01:32:12;10.50;;;7.10;;
76725;SDS011;65651;53.154;17.916;2023-07-30T01:34:41;12.00;;;7.40;;
76725;SDS011;65651;53.154;17.916;2023-07-30T01:37:11;11.40;;;7.20;;
76725;SDS011;65651;53.154;17.916;2023-07-30T01:39:40;10.80;;;8.10;;
76725;SDS011;65651;53.154;17.916;2023-07-30T01:42:14;13.00;;;8.00;;
76725;SDS011;65651;53.154;17.916;2023-07-30T01:44:42;8.60;;;7.50;;
76725;SDS011;65651;53.154;17.916;2023-07-30T01:47:12;12.50;;;8.20;;
76725;SDS011;65651;53.154;17.916;2023-07-30T01:49:42;14.50;;;8.70;;
76725;SDS011;65651;53.154;17.916;2023-07-30T01:52:09;10.80;;;8.50;;
76725;SDS011;65651;53.154;17.916;2023-07-30T01:54:36;12.30;;;8.80;;
76725;SDS011;65651;53.154;17.916;2023-07-30T01:57:03;12.40;;;8.50;;
76725;SDS011;65651;53.154;17.916;2023-07-30T01:59:31;12.40;;;9.20;;
76725;SDS011;65651;53.154;17.916;2023-07-30T02:01:58;14.00;;;10.50;;
76725;SDS011;65651;53.154;17.916;2023-07-30T02:04:25;14.80;;;9.40;;
76725;SDS011;65651;53.154;17.916;2023-07-30T02:06:52;15.50;;;9.80;;
76725;SDS011;65651;53.154;17.916;2023-07-30T02:09:22;14.60;;;10.60;;
76725;SDS011;65651;53.154;17.916;2023-07-30T02:11:51;14.90;;;9.70;;
76725;SDS011;65651;53.154;17.916;2023-07-30T02:14:18;14.70;;;8.70;;
76725;SDS011;65651;53.154;17.916;2023-07-30T02:16:45;9.90;;;8.30;;
76725;SDS011;65651;53.154;17.916;2023-07-30T02:19:13;13.10;;;8.30;;
76725;SDS011;65651;53.154;17.916;2023-07-30T02:21:40;10.70;;;8.60;;
76725;SDS011;65651;53.154;17.916;2023-07-30T02:24:09;14.30;;;8.90;;
76725;SDS011;65651;53.154;17.916;2023-07-30T02:26:40;15.00;;;9.20;;
76725;SDS011;65651;53.154;17.916;2023-07-30T02:29:07;13.90;;;9.50;;
76725;SDS011;65651;53.154;17.916;2023-07-30T02:31:38;18.00;;;10.60;;
76725;SDS011;65651;53.154;17.916;2023-07-30T02:34:05;15.90;;;10.20;;
76725;SDS011;65651;53.154;17.916;2023-07-30T02:36:36;12.70;;;9.30;;
76725;SDS011;65651;53.154;17.916;2023-07-30T02:39:03;18.40;;;10.40;;
76725;SDS011;65651;53.154;17.916;2023-07-30T02:41:31;13.40;;;9.60;;
76725;SDS011;65651;53.154;17.916;2023-07-30T02:43:58;15.50;;;10.40;;
76725;SDS011;65651;53.154;17.916;2023-07-30T02:46:28;13.20;;;8.90;;
76725;SDS011;65651;53.154;17.916;2023-07-30T02:48:55;12.90;;;9.20;;
76725;SDS011;65651;53.154;17.916;2023-07-30T02:51:22;13.30;;;9.20;;
76725;SDS011;65651;53.154;17.916;2023-07-30T02:53:51;14.60;;;9.80;;
76725;SDS011;65651;53.154;17.916;2023-07-30T02:56:20;10.60;;;8.60;;
76725;SDS011;65651;53.154;17.916;2023-07-30T02:58:47;15.50;;;10.10;;
76725;SDS011;65651;53.154;17.916;2023-07-30T03:01:14;12.80;;;9.00;;
76725;SDS011;65651;53.154;17.916;2023-07-30T03:03:41;14.30;;;8.30;;
76725;SDS011;65651;53.154;17.916;2023-07-30T03:06:09;12.20;;;9.90;;
76725;SDS011;65651;53.154;17.916;2023-07-30T03:08:37;14.00;;;10.00;;
76725;SDS011;65651;53.154;17.916;2023-07-30T03:11:05;15.70;;;10.40;;
76725;SDS011;65651;53.154;17.916;2023-07-30T03:13:35;15.60;;;10.30;;
76725;SDS011;65651;53.154;17.916;2023-07-30T03:16:02;14.00;;;8.60;;
76725;SDS011;65651;53.154;17.916;2023-07-30T03:18:29;12.00;;;9.30;;
76725;SDS011;65651;53.154;17.916;2023-07-30T03:20:58;13.30;;;9.40;;
76725;SDS011;65651;53.154;17.916;2023-07-30T03:23:28;14.30;;;9.80;;
76725;SDS011;65651;53.154;17.916;2023-07-30T03:25:56;16.20;;;10.30;;
76725;SDS011;65651;53.154;17.916;2023-07-30T03:28:23;15.20;;;10.60;;
76725;SDS011;65651;53.154;17.916;2023-07-30T03:30:55;15.00;;;9.50;;
76725;SDS011;65651;53.154;17.916;2023-07-30T03:33:22;12.40;;;8.80;;
76725;SDS011;65651;53.154;17.916;2023-07-30T03:35:51;21.00;;;10.20;;
76725;SDS011;65651;53.154;17.916;2023-07-30T03:38:18;15.50;;;10.00;;
76725;SDS011;65651;53.154;17.916;2023-07-30T03:40:45;13.70;;;9.90;;
76725;SDS011;65651;53.154;17.916;2023-07-30T03:43:12;15.20;;;9.60;;
76725;SDS011;65651;53.154;17.916;2023-07-30T03:45:39;18.00;;;10.70;;
76725;SDS011;65651;53.154;17.916;2023-07-30T03:48:07;16.40;;;10.20;;
76725;SDS011;65651;53.154;17.916;2023-07-30T03:50:35;12.90;;;8.50;;
76725;SDS011;65651;53.154;17.916;2023-07-30T03:53:02;15.30;;;9.90;;
76725;SDS011;65651;53.154;17.916;2023-07-30T03:55:36;15.60;;;10.10;;
76725;SDS011;65651;53.154;17.916;2023-07-30T03:58:11;17.30;;;9.90;;
76725;SDS011;65651;53.154;17.916;2023-07-30T04:00:39;15.90;;;9.70;;
76725;SDS011;65651;53.154;17.916;2023-07-30T04:03:14;16.40;;;10.20;;
76725;SDS011;65651;53.154;17.916;2023-07-30T04:05:41;16.80;;;10.60;;
76725;SDS011;65651;53.154;17.916;2023-07-30T04:08:08;19.20;;;10.80;;
76725;SDS011;65651;53.154;17.916;2023-07-30T04:10:36;17.80;;;10.20;;
76725;SDS011;65651;53.154;17.916;2023-07-30T04:13:05;15.80;;;9.60;;
76725;SDS011;65651;53.154;17.916;2023-07-30T04:15:34;16.20;;;9.90;;
76725;SDS011;65651;53.154;17.916;2023-07-30T04:18:06;15.20;;;9.50;;
76725;SDS011;65651;53.154;17.916;2023-07-30T04:20:34;17.90;;;8.60;;
76725;SDS011;65651;53.154;17.916;2023-07-30T04:23:19;14.80;;;9.00;;
76725;SDS011;65651;53.154;17.916;2023-07-30T04:25:48;15.70;;;9.70;;
76725;SDS011;65651;53.154;17.916;2023-07-30T04:28:17;18.00;;;10.80;;
76725;SDS011;65651;53.154;17.916;2023-07-30T04:30:44;16.10;;;10.20;;
76725;SDS011;65651;53.154;17.916;2023-07-30T04:33:14;15.90;;;10.60;;
76725;SDS011;65651;53.154;17.916;2023-07-30T04:35:41;17.60;;;10.70;;
76725;SDS011;65651;53.154;17.916;2023-07-30T04:38:09;17.40;;;12.40;;
76725;SDS011;65651;53.154;17.916;2023-07-30T04:40:36;18.80;;;12.70;;
76725;SDS011;65651;53.154;17.916;2023-07-30T04:43:03;22.30;;;13.10;;
76725;SDS011;65651;53.154;17.916;2023-07-30T04:45:31;20.20;;;11.10;;
76725;SDS011;65651;53.154;17.916;2023-07-30T04:47:58;17.70;;;11.20;;
76725;SDS011;65651;53.154;17.916;2023-07-30T04:50:25;18.10;;;11.10;;
76725;SDS011;65651;53.154;17.916;2023-07-30T04:52:53;20.00;;;10.80;;
76725;SDS011;65651;53.154;17.916;2023-07-30T04:55:22;15.60;;;10.60;;
76725;SDS011;65651;53.154;17.916;2023-07-30T04:57:54;16.80;;;9.60;;
76725;SDS011;65651;53.154;17.916;2023-07-30T05:00:25;14.00;;;9.90;;
76725;SDS011;65651;53.154;17.916;2023-07-30T05:02:53;16.80;;;9.90;;
76725;SDS011;65651;53.154;17.916;2023-07-30T05:05:20;13.00;;;9.40;;
76725;SDS011;65651;53.154;17.916;2023-07-30T05:07:47;14.00;;;9.70;;
76725;SDS011;65651;53.154;17.916;2023-07-30T05:10:14;13.30;;;9.20;;
76725;SDS011;65651;53.154;17.916;2023-07-30T05:12:43;13.50;;;9.30;;
76725;SDS011;65651;53.154;17.916;2023-07-30T05:15:10;10.80;;;7.30;;
76725;SDS011;65651;53.154;17.916;2023-07-30T05:17:37;10.60;;;8.20;;
76725;SDS011;65651;53.154;17.916;2023-07-30T05:20:04;14.40;;;10.00;;
76725;SDS011;65651;53.154;17.916;2023-07-30T05:22:35;12.30;;;9.80;;
76725;SDS011;65651;53.154;17.916;2023-07-30T05:25:03;15.10;;;10.90;;
76725;SDS011;65651;53.154;17.916;2023-07-30T05:27:34;12.60;;;9.10;;
76725;SDS011;65651;53.154;17.916;2023-07-30T05:30:02;14.90;;;9.50;;
76725;SDS011;65651;53.154;17.916;2023-07-30T05:32:31;12.40;;;9.30;;
76725;SDS011;65651;53.154;17.916;2023-07-30T05:34:58;12.80;;;9.70;;
76725;SDS011;65651;53.154;17.916;2023-07-30T05:37:28;17.80;;;10.30;;
76725;SDS011;65651;53.154;17.916;2023-07-30T05:39:56;14.30;;;10.50;;
76725;SDS011;65651;53.154;17.916;2023-07-30T05:42:25;12.10;;;10.00;;
76725;SDS011;65651;53.154;17.916;2023-07-30T05:44:52;11.60;;;9.40;;
76725;SDS011;65651;53.154;17.916;2023-07-30T05:47:19;12.30;;;10.00;;
76725;SDS011;65651;53.154;17.916;2023-07-30T05:49:50;13.50;;;10.00;;
76725;SDS011;65651;53.154;17.916;2023-07-30T05:52:17;11.50;;;10.00;;
76725;SDS011;65651;53.154;17.916;2023-07-30T05:54:44;14.40;;;10.40;;
76725;SDS011;65651;53.154;17.916;2023-07-30T05:57:11;11.70;;;10.20;;
76725;SDS011;65651;53.154;17.916;2023-07-30T05:59:38;8.30;;;7.20;;
76725;SDS011;65651;53.154;17.916;2023-07-30T06:02:05;13.50;;;10.30;;
76725;SDS011;65651;53.154;17.916;2023-07-30T06:04:33;11.50;;;9.90;;
76725;SDS011;65651;53.154;17.916;2023-07-30T06:07:02;11.10;;;8.80;;
76725;SDS011;65651;53.154;17.916;2023-07-30T06:09:43;10.60;;;9.30;;
76725;SDS011;65651;53.154;17.916;2023-07-30T06:12:12;11.60;;;9.70;;
76725;SDS011;65651;53.154;17.916;2023-07-30T06:14:42;12.60;;;10.20;;
76725;SDS011;65651;53.154;17.916;2023-07-30T06:17:09;10.40;;;9.20;;
76725;SDS011;65651;53.154;17.916;2023-07-30T06:19:36;15.20;;;10.90;;
76725;SDS011;65651;53.154;17.916;2023-07-30T06:22:05;11.20;;;9.60;;
76725;SDS011;65651;53.154;17.916;2023-07-30T06:24:32;11.30;;;9.50;;
76725;SDS011;65651;53.154;17.916;2023-07-30T06:26:59;12.80;;;10.30;;
76725;SDS011;65651;53.154;17.916;2023-07-30T06:29:27;10.40;;;9.10;;
76725;SDS011;65651;53.154;17.916;2023-07-30T06:31:54;9.10;;;8.20;;
76725;SDS011;65651;53.154;17.916;2023-07-30T06:34:21;8.10;;;7.10;;
76725;SDS011;65651;53.154;17.916;2023-07-30T06:36:49;8.90;;;8.00;;
76725;SDS011;65651;53.154;17.916;2023-07-30T06:39:16;10.40;;;7.60;;
76725;SDS011;65651;53.154;17.916;2023-07-30T06:41:43;8.40;;;7.40;;
76725;SDS011;65651;53.154;17.916;2023-07-30T06:44:12;7.60;;;6.50;;
76725;SDS011;65651;53.154;17.916;2023-07-30T06:46:39;7.90;;;7.00;;
76725;SDS011;65651;53.154;17.916;2023-07-30T06:49:06;7.60;;;6.90;;
76725;SDS011;65651;53.154;17.916;2023-07-30T06:51:36;9.60;;;6.90;;
76725;SDS011;65651;53.154;17.916;2023-07-30T06:54:06;8.00;;;6.20;;
76725;SDS011;65651;53.154;17.916;2023-07-30T06:56:34;7.70;;;6.20;;
76725;SDS011;65651;53.154;17.916;2023-07-30T06:59:01;7.80;;;7.00;;
76725;SDS011;65651;53.154;17.916;2023-07-30T07:01:29;7.40;;;6.10;;
76725;SDS011;65651;53.154;17.916;2023-07-30T07:03:57;6.40;;;5.50;;
76725;SDS011;65651;53.154;17.916;2023-07-30T07:06:24;5.70;;;5.20;;
76725;SDS011;65651;53.154;17.916;2023-07-30T07:08:52;6.00;;;5.40;;
76725;SDS011;65651;53.154;17.916;2023-07-30T07:11:19;6.00;;;5.40;;
76725;SDS011;65651;53.154;17.916;2023-07-30T07:13:46;6.90;;;6.20;;
76725;SDS011;65651;53.154;17.916;2023-07-30T07:16:13;6.10;;;5.00;;
76725;SDS011;65651;53.154;17.916;2023-07-30T07:18:40;5.20;;;4.80;;
76725;SDS011;65651;53.154;17.916;2023-07-30T07:21:10;6.70;;;5.60;;
76725;SDS011;65651;53.154;17.916;2023-07-30T07:23:38;6.10;;;4.30;;
76725;SDS011;65651;53.154;17.916;2023-07-30T07:26:05;6.20;;;4.90;;
76725;SDS011;65651;53.154;17.916;2023-07-30T07:28:32;5.40;;;4.90;;
76725;SDS011;65651;53.154;17.916;2023-07-30T07:31:00;6.50;;;4.30;;
76725;SDS011;65651;53.154;17.916;2023-07-30T07:33:28;5.70;;;5.00;;
76725;SDS011;65651;53.154;17.916;2023-07-30T07:36:05;6.40;;;5.80;;
76725;SDS011;65651;53.154;17.916;2023-07-30T07:38:33;4.50;;;4.10;;
76725;SDS011;65651;53.154;17.916;2023-07-30T07:41:01;5.00;;;4.60;;
76725;SDS011;65651;53.154;17.916;2023-07-30T07:43:28;8.50;;;5.00;;
76725;SDS011;65651;53.154;17.916;2023-07-30T07:45:55;8.20;;;5.40;;
76725;SDS011;65651;53.154;17.916;2023-07-30T07:48:23;6.20;;;5.50;;
76725;SDS011;65651;53.154;17.916;2023-07-30T07:50:50;6.10;;;5.50;;
76725;SDS011;65651;53.154;17.916;2023-07-30T07:53:17;4.90;;;4.10;;
76725;SDS011;65651;53.154;17.916;2023-07-30T07:55:45;4.80;;;4.40;;
76725;SDS011;65651;53.154;17.916;2023-07-30T07:58:12;4.40;;;4.00;;
76725;SDS011;65651;53.154;17.916;2023-07-30T08:00:39;4.30;;;3.70;;
76725;SDS011;65651;53.154;17.916;2023-07-30T08:03:06;5.00;;;4.40;;
76725;SDS011;65651;53.154;17.916;2023-07-30T08:05:34;4.30;;;3.90;;
76725;SDS011;65651;53.154;17.916;2023-07-30T08:08:02;6.30;;;5.00;;
76725;SDS011;65651;53.154;17.916;2023-07-30T08:10:29;6.00;;;4.60;;
76725;SDS011;65651;53.154;17.916;2023-07-30T08:12:56;5.30;;;3.90;;
76725;SDS011;65651;53.154;17.916;2023-07-30T08:15:24;10.20;;;4.90;;
76725;SDS011;65651;53.154;17.916;2023-07-30T08:17:51;5.30;;;4.40;;
76725;SDS011;65651;53.154;17.916;2023-07-30T08:20:18;6.80;;;4.70;;
76725;SDS011;65651;53.154;17.916;2023-07-30T08:22:45;5.50;;;5.00;;
76725;SDS011;65651;53.154;17.916;2023-07-30T08:25:15;4.40;;;4.00;;
76725;SDS011;65651;53.154;17.916;2023-07-30T08:27:42;5.60;;;5.10;;
76725;SDS011;65651;53.154;17.916;2023-07-30T08:30:10;9.40;;;4.20;;
76725;SDS011;65651;53.154;17.916;2023-07-30T08:32:37;6.00;;;4.50;;
76725;SDS011;65651;53.154;17.916;2023-07-30T08:35:05;5.00;;;4.20;;
76725;SDS011;65651;53.154;17.916;2023-07-30T08:37:33;6.40;;;4.70;;
76725;SDS011;65651;53.154;17.916;2023-07-30T08:40:01;4.70;;;4.30;;
76725;SDS011;65651;53.154;17.916;2023-07-30T08:42:29;5.10;;;4.20;;
76725;SDS011;65651;53.154;17.916;2023-07-30T08:44:57;4.80;;;4.40;;
76725;SDS011;65651;53.154;17.916;2023-07-30T08:47:25;4.20;;;3.70;;
76725;SDS011;65651;53.154;17.916;2023-07-30T08:49:52;5.20;;;4.70;;
76725;SDS011;65651;53.154;17.916;2023-07-30T08:52:21;5.10;;;4.60;;
76725;SDS011;65651;53.154;17.916;2023-07-30T08:54:52;6.00;;;5.40;;
76725;SDS011;65651;53.154;17.916;2023-07-30T08:57:20;5.70;;;5.20;;
76725;SDS011;65651;53.154;17.916;2023-07-30T08:59:53;6.00;;;5.10;;
76725;SDS011;65651;53.154;17.916;2023-07-30T09:02:34;5.50;;;5.00;;
76725;SDS011;65651;53.154;17.916;2023-07-30T09:05:09;4.50;;;4.20;;
76725;SDS011;65651;53.154;17.916;2023-07-30T09:07:37;6.00;;;4.70;;
76725;SDS011;65651;53.154;17.916;2023-07-30T09:10:04;5.80;;;5.30;;
76725;SDS011;65651;53.154;17.916;2023-07-30T09:12:32;4.90;;;4.40;;
76725;SDS011;65651;53.154;17.916;2023-07-30T09:15:05;4.70;;;4.30;;
76725;SDS011;65651;53.154;17.916;2023-07-30T09:17:34;4.90;;;4.40;;
76725;SDS011;65651;53.154;17.916;2023-07-30T09:20:05;5.20;;;4.70;;
76725;SDS011;65651;53.154;17.916;2023-07-30T09:22:34;6.30;;;4.00;;
76725;SDS011;65651;53.154;17.916;2023-07-30T09:25:06;5.10;;;4.50;;
76725;SDS011;65651;53.154;17.916;2023-07-30T09:27:34;4.70;;;4.30;;
76725;SDS011;65651;53.154;17.916;2023-07-30T09:30:02;5.10;;;4.40;;
76725;SDS011;65651;53.154;17.916;2023-07-30T09:32:34;4.60;;;4.20;;
76725;SDS011;65651;53.154;17.916;2023-07-30T09:35:09;6.10;;;3.90;;
76725;SDS011;65651;53.154;17.916;2023-07-30T09:37:41;5.30;;;4.60;;
76725;SDS011;65651;53.154;17.916;2023-07-30T09:40:12;7.50;;;4.90;;
76725;SDS011;65651;53.154;17.916;2023-07-30T09:42:42;5.40;;;4.50;;
76725;SDS011;65651;53.154;17.916;2023-07-30T09:45:20;5.60;;;4.50;;
76725;SDS011;65651;53.154;17.916;2023-07-30T09:47:50;4.00;;;3.60;;
76725;SDS011;65651;53.154;17.916;2023-07-30T09:50:19;6.60;;;3.40;;
76725;SDS011;65651;53.154;17.916;2023-07-30T09:52:50;4.40;;;4.00;;
76725;SDS011;65651;53.154;17.916;2023-07-30T09:55:18;7.40;;;4.30;;
76725;SDS011;65651;53.154;17.916;2023-07-30T09:57:45;4.00;;;3.20;;
76725;SDS011;65651;53.154;17.916;2023-07-30T10:00:14;4.30;;;3.90;;
76725;SDS011;65651;53.154;17.916;2023-07-30T10:02:46;7.30;;;4.30;;
76725;SDS011;65651;53.154;17.916;2023-07-30T10:05:17;6.90;;;4.00;;
76725;SDS011;65651;53.154;17.916;2023-07-30T10:07:59;4.30;;;3.80;;
76725;SDS011;65651;53.154;17.916;2023-07-30T10:10:37;3.70;;;3.30;;
76725;SDS011;65651;53.154;17.916;2023-07-30T10:13:08;4.80;;;3.80;;
76725;SDS011;65651;53.154;17.916;2023-07-30T10:15:37;4.30;;;4.00;;
76725;SDS011;65651;53.154;17.916;2023-07-30T10:18:05;3.70;;;3.30;;
76725;SDS011;65651;53.154;17.916;2023-07-30T10:20:36;4.80;;;4.40;;
76725;SDS011;65651;53.154;17.916;2023-07-30T10:23:04;4.00;;;3.60;;
76725;SDS011;65651;53.154;17.916;2023-07-30T10:25:52;3.80;;;2.80;;
76725;SDS011;65651;53.154;17.916;2023-07-30T10:28:26;5.00;;;3.30;;
76725;SDS011;65651;53.154;17.916;2023-07-30T10:30:57;4.70;;;3.60;;
76725;SDS011;65651;53.154;17.916;2023-07-30T10:33:43;4.50;;;3.90;;
76725;SDS011;65651;53.154;17.916;2023-07-30T10:36:14;5.30;;;3.40;;
76725;SDS011;65651;53.154;17.916;2023-07-30T10:38:45;5.50;;;3.40;;
76725;SDS011;65651;53.154;17.916;2023-07-30T10:41:14;3.80;;;3.40;;
76725;SDS011;65651;53.154;17.916;2023-07-30T10:43:49;5.40;;;3.90;;
76725;SDS011;65651;53.154;17.916;2023-07-30T10:46:17;6.30;;;4.10;;
76725;SDS011;65651;53.154;17.916;2023-07-30T10:48:46;3.40;;;2.60;;
76725;SDS011;65651;53.154;17.916;2023-07-30T10:51:15;6.80;;;3.10;;
76725;SDS011;65651;53.154;17.916;2023-07-30T10:53:46;7.10;;;3.20;;
76725;SDS011;65651;53.154;17.916;2023-07-30T10:56:24;7.70;;;3.50;;
76725;SDS011;65651;53.154;17.916;2023-07-30T10:58:52;4.40;;;3.60;;
76725;SDS011;65651;53.154;17.916;2023-07-30T11:01:23;3.30;;;3.00;;
76725;SDS011;65651;53.154;17.916;2023-07-30T11:03:51;5.10;;;3.40;;
76725;SDS011;65651;53.154;17.916;2023-07-30T11:06:30;4.20;;;3.10;;
76725;SDS011;65651;53.154;17.916;2023-07-30T11:09:00;3.70;;;2.60;;
76725;SDS011;65651;53.154;17.916;2023-07-30T11:11:31;4.60;;;3.00;;
76725;SDS011;65651;53.154;17.916;2023-07-30T11:14:01;3.50;;;3.00;;
76725;SDS011;65651;53.154;17.916;2023-07-30T11:16:34;2.90;;;2.20;;
76725;SDS011;65651;53.154;17.916;2023-07-30T11:19:02;4.30;;;2.40;;
76725;SDS011;65651;53.154;17.916;2023-07-30T11:21:35;4.90;;;3.10;;
76725;SDS011;65651;53.154;17.916;2023-07-30T11:24:15;4.10;;;2.50;;
76725;SDS011;65651;53.154;17.916;2023-07-30T11:26:44;3.20;;;2.90;;
76725;SDS011;65651;53.154;17.916;2023-07-30T11:29:15;2.80;;;2.50;;
76725;SDS011;65651;53.154;17.916;2023-07-30T11:31:43;8.70;;;3.00;;
76725;SDS011;65651;53.154;17.916;2023-07-30T11:34:13;4.20;;;2.80;;
76725;SDS011;65651;53.154;17.916;2023-07-30T11:36:42;3.10;;;2.80;;
76725;SDS011;65651;53.154;17.916;2023-07-30T11:39:10;4.20;;;3.20;;
76725;SDS011;65651;53.154;17.916;2023-07-30T11:41:38;5.60;;;3.30;;
76725;SDS011;65651;53.154;17.916;2023-07-30T11:44:05;5.00;;;3.10;;
76725;SDS011;65651;53.154;17.916;2023-07-30T11:46:34;4.80;;;2.80;;
76725;SDS011;65651;53.154;17.916;2023-07-30T11:49:13;2.80;;;2.30;;
76725;SDS011;65651;53.154;17.916;2023-07-30T11:51:48;4.80;;;3.10;;
76725;SDS011;65651;53.154;17.916;2023-07-30T11:54:20;3.60;;;2.60;;
76725;SDS011;65651;53.154;17.916;2023-07-30T11:56:56;3.50;;;2.50;;
76725;SDS011;65651;53.154;17.916;2023-07-30T11:59:35;5.70;;;3.40;;
76725;SDS011;65651;53.154;17.916;2023-07-30T12:02:03;4.50;;;3.30;;
76725;SDS011;65651;53.154;17.916;2023-07-30T12:04:42;4.00;;;3.50;;
76725;SDS011;65651;53.154;17.916;2023-07-30T12:07:11;4.40;;;3.20;;
76725;SDS011;65651;53.154;17.916;2023-07-30T12:09:49;5.10;;;2.80;;
76725;SDS011;65651;53.154;17.916;2023-07-30T12:12:17;3.30;;;2.50;;
76725;SDS011;65651;53.154;17.916;2023-07-30T12:17:31;3.90;;;3.00;;
76725;SDS011;65651;53.154;17.916;2023-07-30T12:20:00;3.80;;;2.70;;
76725;SDS011;65651;53.154;17.916;2023-07-30T12:22:33;4.20;;;2.80;;
76725;SDS011;65651;53.154;17.916;2023-07-30T12:25:05;5.10;;;3.10;;
76725;SDS011;65651;53.154;17.916;2023-07-30T12:27:35;3.20;;;2.50;;
76725;SDS011;65651;53.154;17.916;2023-07-30T12:30:04;5.30;;;3.10;;
76725;SDS011;65651;53.154;17.916;2023-07-30T12:32:32;4.30;;;2.70;;
76725;SDS011;65651;53.154;17.916;2023-07-30T12:35:00;5.10;;;2.70;;
76725;SDS011;65651;53.154;17.916;2023-07-30T12:37:28;3.40;;;2.80;;
76725;SDS011;65651;53.154;17.916;2023-07-30T12:39:56;5.30;;;3.20;;
76725;SDS011;65651;53.154;17.916;2023-07-30T12:42:23;3.00;;;2.20;;
76725;SDS011;65651;53.154;17.916;2023-07-30T12:44:51;6.40;;;2.50;;
76725;SDS011;65651;53.154;17.916;2023-07-30T12:47:19;4.30;;;2.90;;
76725;SDS011;65651;53.154;17.916;2023-07-30T12:49:51;3.90;;;2.40;;
76725;SDS011;65651;53.154;17.916;2023-07-30T12:52:19;3.10;;;2.40;;
76725;SDS011;65651;53.154;17.916;2023-07-30T12:54:50;2.60;;;2.30;;
76725;SDS011;65651;53.154;17.916;2023-07-30T12:57:18;3.20;;;2.00;;
76725;SDS011;65651;53.154;17.916;2023-07-30T12:59:46;2.90;;;2.60;;
76725;SDS011;65651;53.154;17.916;2023-07-30T13:02:13;3.10;;;2.30;;
76725;SDS011;65651;53.154;17.916;2023-07-30T13:04:40;2.60;;;2.40;;
76725;SDS011;65651;53.154;17.916;2023-07-30T13:07:08;2.70;;;2.20;;
76725;SDS011;65651;53.154;17.916;2023-07-30T13:09:45;2.80;;;2.60;;
76725;SDS011;65651;53.154;17.916;2023-07-30T13:12:14;3.80;;;2.00;;
76725;SDS011;65651;53.154;17.916;2023-07-30T13:14:41;2.90;;;2.00;;
76725;SDS011;65651;53.154;17.916;2023-07-30T13:17:09;2.30;;;1.90;;
76725;SDS011;65651;53.154;17.916;2023-07-30T13:19:36;2.20;;;1.30;;
76725;SDS011;65651;53.154;17.916;2023-07-30T13:22:03;9.00;;;1.90;;
76725;SDS011;65651;53.154;17.916;2023-07-30T13:24:31;2.30;;;2.10;;
76725;SDS011;65651;53.154;17.916;2023-07-30T13:26:59;2.30;;;1.80;;
76725;SDS011;65651;53.154;17.916;2023-07-30T13:29:29;2.10;;;1.90;;
76725;SDS011;65651;53.154;17.916;2023-07-30T13:31:57;2.10;;;1.50;;
76725;SDS011;65651;53.154;17.916;2023-07-30T13:34:25;1.80;;;1.60;;
76725;SDS011;65651;53.154;17.916;2023-07-30T13:36:56;2.70;;;1.40;;
76725;SDS011;65651;53.154;17.916;2023-07-30T13:39:23;2.30;;;1.50;;
76725;SDS011;65651;53.154;17.916;2023-07-30T13:41:50;2.90;;;1.40;;
76725;SDS011;65651;53.154;17.916;2023-07-30T13:44:19;1.70;;;1.60;;
76725;SDS011;65651;53.154;17.916;2023-07-30T13:46:47;3.80;;;1.40;;
76725;SDS011;65651;53.154;17.916;2023-07-30T13:49:14;2.60;;;1.30;;
76725;SDS011;65651;53.154;17.916;2023-07-30T13:51:41;2.30;;;1.60;;
76725;SDS011;65651;53.154;17.916;2023-07-30T13:54:11;4.10;;;2.20;;
76725;SDS011;65651;53.154;17.916;2023-07-30T13:56:39;2.10;;;1.50;;
76725;SDS011;65651;53.154;17.916;2023-07-30T13:59:06;5.30;;;1.30;;
76725;SDS011;65651;53.154;17.916;2023-07-30T14:01:34;4.20;;;1.40;;
76725;SDS011;65651;53.154;17.916;2023-07-30T14:04:01;2.80;;;1.80;;
76725;SDS011;65651;53.154;17.916;2023-07-30T14:06:31;2.30;;;1.50;;
76725;SDS011;65651;53.154;17.916;2023-07-30T14:08:59;2.70;;;1.30;;
76725;SDS011;65651;53.154;17.916;2023-07-30T14:11:27;2.80;;;1.50;;
76725;SDS011;65651;53.154;17.916;2023-07-30T14:13:54;2.50;;;1.30;;
76725;SDS011;65651;53.154;17.916;2023-07-30T14:16:22;1.60;;;0.90;;
76725;SDS011;65651;53.154;17.916;2023-07-30T14:18:50;1.60;;;1.10;;
76725;SDS011;65651;53.154;17.916;2023-07-30T14:21:17;2.80;;;0.90;;
76725;SDS011;65651;53.154;17.916;2023-07-30T14:23:44;4.50;;;0.80;;
76725;SDS011;65651;53.154;17.916;2023-07-30T14:26:12;2.90;;;1.30;;
76725;SDS011;65651;53.154;17.916;2023-07-30T14:28:39;1.70;;;1.20;;
76725;SDS011;65651;53.154;17.916;2023-07-30T14:31:07;2.10;;;1.20;;
76725;SDS011;65651;53.154;17.916;2023-07-30T14:33:34;3.00;;;1.30;;
76725;SDS011;65651;53.154;17.916;2023-07-30T14:36:03;1.60;;;1.10;;
76725;SDS011;65651;53.154;17.916;2023-07-30T14:38:31;1.70;;;1.10;;
76725;SDS011;65651;53.154;17.916;2023-07-30T14:41:01;2.40;;;1.00;;